sensor_id;sensor_type;location;lat;lon;timestamp;temperature;humidity
4308;DHT22;2167;53.448;9.984;2023-04-21T00:02:24;8.90;20.20
4308;DHT22;2167;53.448;9.984;2023-04-21T00:04:50;8.80;20.50
4308;DHT22;2167;53.448;9.984;2023-04-21T00:07:16;8.80;20.70
4308;DHT22;2167;53.448;9.984;2023-04-21T00:09:44;8.80;20.80
4308;DHT22;2167;53.448;9.984;2023-04-21T00:12:10;8.80;21.00
4308;DHT22;2167;53.448;9.984;2023-04-21T00:14:36;8.80;20.70
4308;DHT22;2167;53.448;9.984;2023-04-21T00:17:02;8.70;20.50
4308;DHT22;2167;53.448;9.984;2023-04-21T00:19:27;8.70;20.50
4308;DHT22;2167;53.448;9.984;2023-04-21T00:21:54;8.70;20.70
4308;DHT22;2167;53.448;9.984;2023-04-21T00:24:23;8.70;20.90
4308;DHT22;2167;53.448;9.984;2023-04-21T00:26:49;8.70;21.20
4308;DHT22;2167;53.448;9.984;2023-04-21T00:29:15;8.70;21.50
4308;DHT22;2167;53.448;9.984;2023-04-21T00:31:41;8.60;21.30
4308;DHT22;2167;53.448;9.984;2023-04-21T00:34:06;8.60;21.40
4308;DHT22;2167;53.448;9.984;2023-04-21T00:36:32;8.60;21.60
4308;DHT22;2167;53.448;9.984;2023-04-21T00:38:57;8.60;21.50
4308;DHT22;2167;53.448;9.984;2023-04-21T00:41:23;8.60;21.70
4308;DHT22;2167;53.448;9.984;2023-04-21T00:44:02;8.60;21.80
4308;DHT22;2167;53.448;9.984;2023-04-21T00:46:28;8.60;21.40
4308;DHT22;2167;53.448;9.984;2023-04-21T00:48:54;8.50;21.20
4308;DHT22;2167;53.448;9.984;2023-04-21T00:51:19;8.50;21.50
4308;DHT22;2167;53.448;9.984;2023-04-21T00:53:45;8.50;21.40
4308;DHT22;2167;53.448;9.984;2023-04-21T00:56:11;8.50;21.10
4308;DHT22;2167;53.448;9.984;2023-04-21T00:58:40;8.40;21.20
4308;DHT22;2167;53.448;9.984;2023-04-21T01:01:06;8.40;21.70
4308;DHT22;2167;53.448;9.984;2023-04-21T01:03:32;8.40;22.20
4308;DHT22;2167;53.448;9.984;2023-04-21T01:05:58;8.40;22.40
4308;DHT22;2167;53.448;9.984;2023-04-21T01:08:25;8.30;22.60
4308;DHT22;2167;53.448;9.984;2023-04-21T01:10:51;8.30;22.80
4308;DHT22;2167;53.448;9.984;2023-04-21T01:13:20;8.40;22.90
4308;DHT22;2167;53.448;9.984;2023-04-21T01:15:47;8.30;22.80
4308;DHT22;2167;53.448;9.984;2023-04-21T01:18:12;8.30;21.70
4308;DHT22;2167;53.448;9.984;2023-04-21T01:20:39;8.20;21.20
4308;DHT22;2167;53.448;9.984;2023-04-21T01:23:05;8.10;20.70
4308;DHT22;2167;53.448;9.984;2023-04-21T01:25:31;8.10;20.80
4308;DHT22;2167;53.448;9.984;2023-04-21T01:27:57;8.00;20.70
4308;DHT22;2167;53.448;9.984;2023-04-21T01:30:23;7.90;20.60
4308;DHT22;2167;53.448;9.984;2023-04-21T01:32:48;7.90;20.60
4308;DHT22;2167;53.448;9.984;2023-04-21T01:35:14;7.80;21.30
4308;DHT22;2167;53.448;9.984;2023-04-21T01:37:40;7.80;21.00
4308;DHT22;2167;53.448;9.984;2023-04-21T01:40:07;7.80;21.20
4308;DHT22;2167;53.448;9.984;2023-04-21T01:42:38;7.70;21.00
4308;DHT22;2167;53.448;9.984;2023-04-21T01:45:04;7.60;20.80
4308;DHT22;2167;53.448;9.984;2023-04-21T01:47:30;7.60;21.20
4308;DHT22;2167;53.448;9.984;2023-04-21T01:49:56;7.60;21.50
4308;DHT22;2167;53.448;9.984;2023-04-21T01:52:22;7.60;21.90
4308;DHT22;2167;53.448;9.984;2023-04-21T01:54:48;7.60;22.30
4308;DHT22;2167;53.448;9.984;2023-04-21T01:57:14;7.50;22.50
4308;DHT22;2167;53.448;9.984;2023-04-21T01:59:39;7.60;22.90
4308;DHT22;2167;53.448;9.984;2023-04-21T02:02:05;7.50;23.20
4308;DHT22;2167;53.448;9.984;2023-04-21T02:04:31;7.50;23.40
4308;DHT22;2167;53.448;9.984;2023-04-21T02:06:56;7.50;23.50
4308;DHT22;2167;53.448;9.984;2023-04-21T02:09:22;7.60;23.40
4308;DHT22;2167;53.448;9.984;2023-04-21T02:11:47;7.50;23.40
4308;DHT22;2167;53.448;9.984;2023-04-21T02:14:13;7.50;23.70
4308;DHT22;2167;53.448;9.984;2023-04-21T02:16:39;7.50;23.70
4308;DHT22;2167;53.448;9.984;2023-04-21T02:19:05;7.50;23.50
4308;DHT22;2167;53.448;9.984;2023-04-21T02:21:30;7.50;24.20
4308;DHT22;2167;53.448;9.984;2023-04-21T02:23:57;7.50;24.70
4308;DHT22;2167;53.448;9.984;2023-04-21T02:26:23;7.50;25.40
4308;DHT22;2167;53.448;9.984;2023-04-21T02:28:49;7.50;25.60
4308;DHT22;2167;53.448;9.984;2023-04-21T02:31:16;7.50;25.10
4308;DHT22;2167;53.448;9.984;2023-04-21T02:33:41;7.50;25.10
4308;DHT22;2167;53.448;9.984;2023-04-21T02:36:07;7.50;24.90
4308;DHT22;2167;53.448;9.984;2023-04-21T02:38:33;7.50;24.80
4308;DHT22;2167;53.448;9.984;2023-04-21T02:40:59;7.50;24.70
4308;DHT22;2167;53.448;9.984;2023-04-21T02:43:24;7.50;24.60
4308;DHT22;2167;53.448;9.984;2023-04-21T02:45:50;7.50;24.30
4308;DHT22;2167;53.448;9.984;2023-04-21T02:48:16;7.40;24.10
4308;DHT22;2167;53.448;9.984;2023-04-21T02:50:47;7.40;24.00
4308;DHT22;2167;53.448;9.984;2023-04-21T02:53:14;7.40;23.80
4308;DHT22;2167;53.448;9.984;2023-04-21T02:55:39;7.30;23.40
4308;DHT22;2167;53.448;9.984;2023-04-21T02:58:05;7.20;23.30
4308;DHT22;2167;53.448;9.984;2023-04-21T03:00:31;7.20;23.40
4308;DHT22;2167;53.448;9.984;2023-04-21T03:02:56;7.20;23.40
4308;DHT22;2167;53.448;9.984;2023-04-21T03:05:23;7.10;23.50
4308;DHT22;2167;53.448;9.984;2023-04-21T03:07:48;7.10;23.70
4308;DHT22;2167;53.448;9.984;2023-04-21T03:10:15;7.10;23.60
4308;DHT22;2167;53.448;9.984;2023-04-21T03:12:40;7.00;23.60
4308;DHT22;2167;53.448;9.984;2023-04-21T03:15:06;7.10;23.80
4308;DHT22;2167;53.448;9.984;2023-04-21T03:17:32;7.00;24.00
4308;DHT22;2167;53.448;9.984;2023-04-21T03:19:58;7.10;24.30
4308;DHT22;2167;53.448;9.984;2023-04-21T03:22:24;7.00;24.20
4308;DHT22;2167;53.448;9.984;2023-04-21T03:24:49;7.00;24.00
4308;DHT22;2167;53.448;9.984;2023-04-21T03:27:15;7.00;23.90
4308;DHT22;2167;53.448;9.984;2023-04-21T03:29:40;7.00;24.00
4308;DHT22;2167;53.448;9.984;2023-04-21T03:32:06;6.90;24.00
4308;DHT22;2167;53.448;9.984;2023-04-21T03:34:32;6.90;23.70
4308;DHT22;2167;53.448;9.984;2023-04-21T03:36:57;6.90;23.50
4308;DHT22;2167;53.448;9.984;2023-04-21T03:39:23;6.80;23.50
4308;DHT22;2167;53.448;9.984;2023-04-21T03:41:49;6.80;23.60
4308;DHT22;2167;53.448;9.984;2023-04-21T03:44:14;6.80;23.70
4308;DHT22;2167;53.448;9.984;2023-04-21T03:46:40;6.70;23.60
4308;DHT22;2167;53.448;9.984;2023-04-21T03:49:05;6.70;23.70
4308;DHT22;2167;53.448;9.984;2023-04-21T03:51:31;6.70;24.00
4308;DHT22;2167;53.448;9.984;2023-04-21T03:53:57;6.70;23.80
4308;DHT22;2167;53.448;9.984;2023-04-21T03:56:23;6.70;24.60
4308;DHT22;2167;53.448;9.984;2023-04-21T03:58:49;6.70;24.30
4308;DHT22;2167;53.448;9.984;2023-04-21T04:01:14;6.70;24.20
4308;DHT22;2167;53.448;9.984;2023-04-21T04:03:40;6.70;23.90
4308;DHT22;2167;53.448;9.984;2023-04-21T04:06:06;6.70;23.90
4308;DHT22;2167;53.448;9.984;2023-04-21T04:08:31;6.60;24.00
4308;DHT22;2167;53.448;9.984;2023-04-21T04:10:57;6.60;24.20
4308;DHT22;2167;53.448;9.984;2023-04-21T04:13:23;6.60;24.30
4308;DHT22;2167;53.448;9.984;2023-04-21T04:15:51;6.60;24.80
4308;DHT22;2167;53.448;9.984;2023-04-21T04:18:17;6.70;25.40
4308;DHT22;2167;53.448;9.984;2023-04-21T04:20:42;6.70;25.60
4308;DHT22;2167;53.448;9.984;2023-04-21T04:23:08;6.70;25.80
4308;DHT22;2167;53.448;9.984;2023-04-21T04:25:33;6.70;25.80
4308;DHT22;2167;53.448;9.984;2023-04-21T04:27:59;6.70;25.70
4308;DHT22;2167;53.448;9.984;2023-04-21T04:30:25;6.70;25.50
4308;DHT22;2167;53.448;9.984;2023-04-21T04:32:53;6.70;25.30
4308;DHT22;2167;53.448;9.984;2023-04-21T04:35:18;6.70;25.40
4308;DHT22;2167;53.448;9.984;2023-04-21T04:37:44;6.70;25.80
4308;DHT22;2167;53.448;9.984;2023-04-21T04:40:10;6.70;26.10
4308;DHT22;2167;53.448;9.984;2023-04-21T04:42:36;6.70;26.30
4308;DHT22;2167;53.448;9.984;2023-04-21T04:45:05;6.70;26.40
4308;DHT22;2167;53.448;9.984;2023-04-21T04:47:35;6.80;26.50
4308;DHT22;2167;53.448;9.984;2023-04-21T04:50:01;6.80;26.80
4308;DHT22;2167;53.448;9.984;2023-04-21T04:52:27;6.80;26.90
4308;DHT22;2167;53.448;9.984;2023-04-21T04:54:53;6.80;27.60
4308;DHT22;2167;53.448;9.984;2023-04-21T04:57:19;6.90;28.10
4308;DHT22;2167;53.448;9.984;2023-04-21T04:59:44;7.00;28.60
4308;DHT22;2167;53.448;9.984;2023-04-21T05:02:11;7.10;28.80
4308;DHT22;2167;53.448;9.984;2023-04-21T05:04:37;7.20;28.60
4308;DHT22;2167;53.448;9.984;2023-04-21T05:07:03;7.20;28.40
4308;DHT22;2167;53.448;9.984;2023-04-21T05:09:32;7.20;28.40
4308;DHT22;2167;53.448;9.984;2023-04-21T05:11:57;7.20;28.20
4308;DHT22;2167;53.448;9.984;2023-04-21T05:14:23;7.20;27.80
4308;DHT22;2167;53.448;9.984;2023-04-21T05:16:48;7.20;27.90
4308;DHT22;2167;53.448;9.984;2023-04-21T05:19:14;7.30;28.10
4308;DHT22;2167;53.448;9.984;2023-04-21T05:21:40;7.30;28.10
4308;DHT22;2167;53.448;9.984;2023-04-21T05:24:05;7.30;28.20
4308;DHT22;2167;53.448;9.984;2023-04-21T05:26:31;7.30;28.40
4308;DHT22;2167;53.448;9.984;2023-04-21T05:28:57;7.40;28.70
4308;DHT22;2167;53.448;9.984;2023-04-21T05:31:24;7.50;29.00
4308;DHT22;2167;53.448;9.984;2023-04-21T05:33:50;7.50;29.20
4308;DHT22;2167;53.448;9.984;2023-04-21T05:36:16;7.60;29.20
4308;DHT22;2167;53.448;9.984;2023-04-21T05:38:42;7.70;29.20
4308;DHT22;2167;53.448;9.984;2023-04-21T05:41:07;7.70;29.10
4308;DHT22;2167;53.448;9.984;2023-04-21T05:43:33;7.90;28.90
4308;DHT22;2167;53.448;9.984;2023-04-21T05:46:00;7.90;28.80
4308;DHT22;2167;53.448;9.984;2023-04-21T05:48:26;7.90;28.80
4308;DHT22;2167;53.448;9.984;2023-04-21T05:50:53;8.10;28.70
4308;DHT22;2167;53.448;9.984;2023-04-21T05:53:18;8.20;28.50
4308;DHT22;2167;53.448;9.984;2023-04-21T05:55:44;8.20;28.30
4308;DHT22;2167;53.448;9.984;2023-04-21T05:58:10;8.30;28.10
4308;DHT22;2167;53.448;9.984;2023-04-21T06:00:35;8.40;28.40
4308;DHT22;2167;53.448;9.984;2023-04-21T06:03:01;8.50;27.50
4308;DHT22;2167;53.448;9.984;2023-04-21T06:05:27;8.50;27.20
4308;DHT22;2167;53.448;9.984;2023-04-21T06:07:52;8.60;26.80
4308;DHT22;2167;53.448;9.984;2023-04-21T06:10:18;8.70;26.50
4308;DHT22;2167;53.448;9.984;2023-04-21T06:12:43;8.70;25.90
4308;DHT22;2167;53.448;9.984;2023-04-21T06:15:09;8.80;25.60
4308;DHT22;2167;53.448;9.984;2023-04-21T06:17:35;8.90;25.60
4308;DHT22;2167;53.448;9.984;2023-04-21T06:20:01;9.00;25.20
4308;DHT22;2167;53.448;9.984;2023-04-21T06:22:26;9.00;25.20
4308;DHT22;2167;53.448;9.984;2023-04-21T06:24:52;9.10;24.60
4308;DHT22;2167;53.448;9.984;2023-04-21T06:27:17;9.20;24.10
4308;DHT22;2167;53.448;9.984;2023-04-21T06:29:43;9.30;24.30
4308;DHT22;2167;53.448;9.984;2023-04-21T06:32:10;9.40;23.90
4308;DHT22;2167;53.448;9.984;2023-04-21T06:34:36;9.50;22.70
4308;DHT22;2167;53.448;9.984;2023-04-21T06:37:02;9.60;22.00
4308;DHT22;2167;53.448;9.984;2023-04-21T06:39:27;9.60;21.00
4308;DHT22;2167;53.448;9.984;2023-04-21T06:41:53;9.80;19.50
4308;DHT22;2167;53.448;9.984;2023-04-21T06:44:19;9.80;19.40
4308;DHT22;2167;53.448;9.984;2023-04-21T06:46:45;9.90;18.90
4308;DHT22;2167;53.448;9.984;2023-04-21T06:49:12;10.00;17.70
4308;DHT22;2167;53.448;9.984;2023-04-21T06:51:37;10.10;17.00
4308;DHT22;2167;53.448;9.984;2023-04-21T06:54:03;10.10;17.00
4308;DHT22;2167;53.448;9.984;2023-04-21T06:56:30;10.20;17.00
4308;DHT22;2167;53.448;9.984;2023-04-21T06:58:56;10.30;17.10
4308;DHT22;2167;53.448;9.984;2023-04-21T07:01:22;10.40;17.40
4308;DHT22;2167;53.448;9.984;2023-04-21T07:03:50;10.50;16.50
4308;DHT22;2167;53.448;9.984;2023-04-21T07:06:16;10.60;16.10
4308;DHT22;2167;53.448;9.984;2023-04-21T07:08:42;10.70;16.10
4308;DHT22;2167;53.448;9.984;2023-04-21T07:11:07;10.80;15.00
4308;DHT22;2167;53.448;9.984;2023-04-21T07:13:34;10.90;13.70
4308;DHT22;2167;53.448;9.984;2023-04-21T07:16:00;11.00;12.70
4308;DHT22;2167;53.448;9.984;2023-04-21T07:18:25;11.10;11.00
4308;DHT22;2167;53.448;9.984;2023-04-21T07:20:51;11.10;9.70
4308;DHT22;2167;53.448;9.984;2023-04-21T07:23:17;11.10;9.50
4308;DHT22;2167;53.448;9.984;2023-04-21T07:25:43;11.20;7.90
4308;DHT22;2167;53.448;9.984;2023-04-21T07:28:09;11.30;8.00
4308;DHT22;2167;53.448;9.984;2023-04-21T07:30:35;11.40;7.10
4308;DHT22;2167;53.448;9.984;2023-04-21T07:33:01;11.40;6.80
4308;DHT22;2167;53.448;9.984;2023-04-21T07:35:27;11.60;7.50
4308;DHT22;2167;53.448;9.984;2023-04-21T07:37:52;11.70;7.50
4308;DHT22;2167;53.448;9.984;2023-04-21T07:40:18;11.80;6.20
4308;DHT22;2167;53.448;9.984;2023-04-21T07:42:44;11.80;4.70
4308;DHT22;2167;53.448;9.984;2023-04-21T07:45:10;11.90;3.60
4308;DHT22;2167;53.448;9.984;2023-04-21T07:47:35;12.00;2.80
4308;DHT22;2167;53.448;9.984;2023-04-21T07:50:01;12.20;3.20
4308;DHT22;2167;53.448;9.984;2023-04-21T07:52:27;12.40;2.60
4308;DHT22;2167;53.448;9.984;2023-04-21T07:54:54;12.50;2.60
4308;DHT22;2167;53.448;9.984;2023-04-21T07:57:20;12.60;1.00
4308;DHT22;2167;53.448;9.984;2023-04-21T07:59:45;12.60;1.00
4308;DHT22;2167;53.448;9.984;2023-04-21T08:02:11;12.70;1.00
4308;DHT22;2167;53.448;9.984;2023-04-21T08:04:36;12.80;1.00
4308;DHT22;2167;53.448;9.984;2023-04-21T08:07:02;12.90;1.00
4308;DHT22;2167;53.448;9.984;2023-04-21T08:09:29;12.90;1.00
4308;DHT22;2167;53.448;9.984;2023-04-21T08:11:54;13.10;1.00
4308;DHT22;2167;53.448;9.984;2023-04-21T08:14:21;13.20;1.00
4308;DHT22;2167;53.448;9.984;2023-04-21T08:16:47;13.30;1.00
4308;DHT22;2167;53.448;9.984;2023-04-21T08:19:12;13.50;1.00
4308;DHT22;2167;53.448;9.984;2023-04-21T08:21:38;13.60;1.00
4308;DHT22;2167;53.448;9.984;2023-04-21T08:24:04;13.90;1.00
4308;DHT22;2167;53.448;9.984;2023-04-21T08:26:30;14.10;1.00
4308;DHT22;2167;53.448;9.984;2023-04-21T08:28:59;14.40;1.00
4308;DHT22;2167;53.448;9.984;2023-04-21T08:31:25;14.60;1.00
4308;DHT22;2167;53.448;9.984;2023-04-21T08:33:53;14.90;1.00
4308;DHT22;2167;53.448;9.984;2023-04-21T08:36:18;15.20;1.00
4308;DHT22;2167;53.448;9.984;2023-04-21T08:38:44;15.40;1.00
4308;DHT22;2167;53.448;9.984;2023-04-21T08:41:10;15.60;1.00
4308;DHT22;2167;53.448;9.984;2023-04-21T08:43:35;15.80;1.00
4308;DHT22;2167;53.448;9.984;2023-04-21T08:46:05;16.00;1.00
4308;DHT22;2167;53.448;9.984;2023-04-21T08:48:34;16.20;1.00
4308;DHT22;2167;53.448;9.984;2023-04-21T08:51:01;16.40;1.00
4308;DHT22;2167;53.448;9.984;2023-04-21T08:53:26;16.50;1.00
4308;DHT22;2167;53.448;9.984;2023-04-21T08:55:54;16.60;1.00
4308;DHT22;2167;53.448;9.984;2023-04-21T08:58:20;16.50;1.00
4308;DHT22;2167;53.448;9.984;2023-04-21T09:00:49;16.60;1.00
4308;DHT22;2167;53.448;9.984;2023-04-21T09:03:26;16.70;1.00
4308;DHT22;2167;53.448;9.984;2023-04-21T09:05:59;16.80;1.00
4308;DHT22;2167;53.448;9.984;2023-04-21T09:08:26;16.90;1.00
4308;DHT22;2167;53.448;9.984;2023-04-21T09:10:53;17.00;1.00
4308;DHT22;2167;53.448;9.984;2023-04-21T09:13:19;17.10;1.00
4308;DHT22;2167;53.448;9.984;2023-04-21T09:15:49;17.10;1.00
4308;DHT22;2167;53.448;9.984;2023-04-21T09:18:21;17.10;1.00
4308;DHT22;2167;53.448;9.984;2023-04-21T09:20:50;17.20;1.00
4308;DHT22;2167;53.448;9.984;2023-04-21T09:23:16;17.30;1.00
4308;DHT22;2167;53.448;9.984;2023-04-21T09:25:43;17.50;1.00
4308;DHT22;2167;53.448;9.984;2023-04-21T09:28:10;17.60;1.00
4308;DHT22;2167;53.448;9.984;2023-04-21T09:30:37;17.50;1.00
4308;DHT22;2167;53.448;9.984;2023-04-21T09:33:03;17.60;1.00
4308;DHT22;2167;53.448;9.984;2023-04-21T09:35:32;17.70;1.00
4308;DHT22;2167;53.448;9.984;2023-04-21T09:38:00;17.80;1.00
4308;DHT22;2167;53.448;9.984;2023-04-21T09:40:30;17.90;1.00
4308;DHT22;2167;53.448;9.984;2023-04-21T09:42:57;18.00;1.00
4308;DHT22;2167;53.448;9.984;2023-04-21T09:45:28;18.10;1.00
4308;DHT22;2167;53.448;9.984;2023-04-21T09:47:56;18.20;1.00
4308;DHT22;2167;53.448;9.984;2023-04-21T09:50:24;18.30;1.00
4308;DHT22;2167;53.448;9.984;2023-04-21T09:52:52;18.40;1.00
4308;DHT22;2167;53.448;9.984;2023-04-21T09:55:19;18.50;1.00
4308;DHT22;2167;53.448;9.984;2023-04-21T09:57:47;18.60;1.00
4308;DHT22;2167;53.448;9.984;2023-04-21T10:00:13;18.90;1.00
4308;DHT22;2167;53.448;9.984;2023-04-21T10:02:47;19.10;1.00
4308;DHT22;2167;53.448;9.984;2023-04-21T10:05:13;19.20;1.00
4308;DHT22;2167;53.448;9.984;2023-04-21T10:07:39;19.30;1.00
4308;DHT22;2167;53.448;9.984;2023-04-21T10:12:46;19.40;1.00
4308;DHT22;2167;53.448;9.984;2023-04-21T10:15:37;19.40;1.00
4308;DHT22;2167;53.448;9.984;2023-04-21T10:18:18;19.40;1.00
4308;DHT22;2167;53.448;9.984;2023-04-21T10:20:57;19.70;1.00
4308;DHT22;2167;53.448;9.984;2023-04-21T10:23:29;19.70;1.00
4308;DHT22;2167;53.448;9.984;2023-04-21T10:26:10;19.60;1.00
4308;DHT22;2167;53.448;9.984;2023-04-21T10:28:59;19.50;1.00
4308;DHT22;2167;53.448;9.984;2023-04-21T10:31:29;19.70;1.00
4308;DHT22;2167;53.448;9.984;2023-04-21T10:36:47;19.60;1.00
4308;DHT22;2167;53.448;9.984;2023-04-21T10:39:30;19.80;1.00
4308;DHT22;2167;53.448;9.984;2023-04-21T10:47:26;19.90;1.00
4308;DHT22;2167;53.448;9.984;2023-04-21T10:49:53;20.10;1.00
4308;DHT22;2167;53.448;9.984;2023-04-21T10:52:20;20.20;1.00
4308;DHT22;2167;53.448;9.984;2023-04-21T10:57:14;20.50;1.00
4308;DHT22;2167;53.448;9.984;2023-04-21T10:59:40;20.70;1.00
4308;DHT22;2167;53.448;9.984;2023-04-21T11:02:16;20.70;1.00
4308;DHT22;2167;53.448;9.984;2023-04-21T11:04:43;20.80;1.00
4308;DHT22;2167;53.448;9.984;2023-04-21T11:07:16;20.90;1.00
4308;DHT22;2167;53.448;9.984;2023-04-21T11:09:45;21.00;1.00
4308;DHT22;2167;53.448;9.984;2023-04-21T11:12:12;21.00;1.00
4308;DHT22;2167;53.448;9.984;2023-04-21T11:14:40;21.10;1.00
4308;DHT22;2167;53.448;9.984;2023-04-21T11:17:32;21.10;1.00
4308;DHT22;2167;53.448;9.984;2023-04-21T11:19:58;21.20;1.00
4308;DHT22;2167;53.448;9.984;2023-04-21T11:22:25;21.10;1.00
4308;DHT22;2167;53.448;9.984;2023-04-21T11:24:53;21.20;1.00
4308;DHT22;2167;53.448;9.984;2023-04-21T11:27:19;21.30;1.00
4308;DHT22;2167;53.448;9.984;2023-04-21T11:29:47;21.30;1.00
4308;DHT22;2167;53.448;9.984;2023-04-21T11:32:14;21.40;1.00
4308;DHT22;2167;53.448;9.984;2023-04-21T11:34:40;21.50;1.00
4308;DHT22;2167;53.448;9.984;2023-04-21T11:37:07;21.40;1.00
4308;DHT22;2167;53.448;9.984;2023-04-21T11:39:33;21.40;1.00
4308;DHT22;2167;53.448;9.984;2023-04-21T11:41:59;21.30;1.00
4308;DHT22;2167;53.448;9.984;2023-04-21T11:44:52;21.40;1.00
4308;DHT22;2167;53.448;9.984;2023-04-21T11:47:25;21.60;1.00
4308;DHT22;2167;53.448;9.984;2023-04-21T11:49:55;21.80;1.00
4308;DHT22;2167;53.448;9.984;2023-04-21T11:52:26;22.10;1.00
4308;DHT22;2167;53.448;9.984;2023-04-21T11:57:30;22.10;1.00
4308;DHT22;2167;53.448;9.984;2023-04-21T12:00:00;22.10;1.00
4308;DHT22;2167;53.448;9.984;2023-04-21T12:02:28;22.10;1.00
4308;DHT22;2167;53.448;9.984;2023-04-21T12:04:58;22.10;1.00
4308;DHT22;2167;53.448;9.984;2023-04-21T12:07:24;22.10;1.00
4308;DHT22;2167;53.448;9.984;2023-04-21T12:09:53;22.20;1.00
4308;DHT22;2167;53.448;9.984;2023-04-21T12:12:18;22.30;1.00
4308;DHT22;2167;53.448;9.984;2023-04-21T12:14:46;22.60;1.00
4308;DHT22;2167;53.448;9.984;2023-04-21T12:17:11;22.70;1.00
4308;DHT22;2167;53.448;9.984;2023-04-21T12:19:39;22.90;1.00
4308;DHT22;2167;53.448;9.984;2023-04-21T12:22:13;23.00;1.00
4308;DHT22;2167;53.448;9.984;2023-04-21T12:24:40;22.90;1.00
4308;DHT22;2167;53.448;9.984;2023-04-21T12:27:06;22.80;1.00
4308;DHT22;2167;53.448;9.984;2023-04-21T12:29:33;22.60;1.00
4308;DHT22;2167;53.448;9.984;2023-04-21T12:32:04;22.40;1.00
4308;DHT22;2167;53.448;9.984;2023-04-21T12:34:30;22.50;1.00
4308;DHT22;2167;53.448;9.984;2023-04-21T12:36:55;22.60;1.00
4308;DHT22;2167;53.448;9.984;2023-04-21T12:39:24;22.80;1.00
4308;DHT22;2167;53.448;9.984;2023-04-21T12:41:50;22.80;1.00
4308;DHT22;2167;53.448;9.984;2023-04-21T12:44:16;22.80;1.00
4308;DHT22;2167;53.448;9.984;2023-04-21T12:46:41;22.80;1.00
4308;DHT22;2167;53.448;9.984;2023-04-21T12:49:07;22.70;1.00
4308;DHT22;2167;53.448;9.984;2023-04-21T12:51:34;22.80;1.00
4308;DHT22;2167;53.448;9.984;2023-04-21T12:54:00;22.70;1.00
4308;DHT22;2167;53.448;9.984;2023-04-21T12:56:25;22.60;1.00
4308;DHT22;2167;53.448;9.984;2023-04-21T12:58:52;22.60;1.00
4308;DHT22;2167;53.448;9.984;2023-04-21T13:01:20;22.50;1.00
4308;DHT22;2167;53.448;9.984;2023-04-21T13:03:45;22.50;1.00
4308;DHT22;2167;53.448;9.984;2023-04-21T13:06:11;22.60;1.00
4308;DHT22;2167;53.448;9.984;2023-04-21T13:08:37;22.70;1.00
4308;DHT22;2167;53.448;9.984;2023-04-21T13:11:02;22.80;1.00
4308;DHT22;2167;53.448;9.984;2023-04-21T13:13:29;22.80;1.00
4308;DHT22;2167;53.448;9.984;2023-04-21T13:15:55;22.70;1.00
4308;DHT22;2167;53.448;9.984;2023-04-21T13:18:21;22.90;1.00
4308;DHT22;2167;53.448;9.984;2023-04-21T13:20:47;23.00;1.00
4308;DHT22;2167;53.448;9.984;2023-04-21T13:23:12;23.10;1.00
4308;DHT22;2167;53.448;9.984;2023-04-21T13:25:39;23.10;1.00
4308;DHT22;2167;53.448;9.984;2023-04-21T13:28:05;23.00;1.00
4308;DHT22;2167;53.448;9.984;2023-04-21T13:30:32;23.00;1.00
4308;DHT22;2167;53.448;9.984;2023-04-21T13:32:58;23.00;1.00
4308;DHT22;2167;53.448;9.984;2023-04-21T13:35:24;22.90;1.00
4308;DHT22;2167;53.448;9.984;2023-04-21T13:37:50;23.00;1.00
4308;DHT22;2167;53.448;9.984;2023-04-21T13:40:15;23.00;1.00
4308;DHT22;2167;53.448;9.984;2023-04-21T13:42:41;22.90;1.00
4308;DHT22;2167;53.448;9.984;2023-04-21T13:45:07;22.90;1.00
4308;DHT22;2167;53.448;9.984;2023-04-21T13:47:33;23.00;1.00
4308;DHT22;2167;53.448;9.984;2023-04-21T13:49:59;22.90;1.00
4308;DHT22;2167;53.448;9.984;2023-04-21T13:52:25;23.00;1.00
4308;DHT22;2167;53.448;9.984;2023-04-21T13:54:51;23.10;1.00
4308;DHT22;2167;53.448;9.984;2023-04-21T13:57:18;23.10;1.00
4308;DHT22;2167;53.448;9.984;2023-04-21T13:59:44;23.00;1.00
4308;DHT22;2167;53.448;9.984;2023-04-21T14:02:10;23.00;1.00
4308;DHT22;2167;53.448;9.984;2023-04-21T14:04:35;23.00;1.00
4308;DHT22;2167;53.448;9.984;2023-04-21T14:07:01;23.10;1.00
4308;DHT22;2167;53.448;9.984;2023-04-21T14:09:27;23.20;1.00
4308;DHT22;2167;53.448;9.984;2023-04-21T14:11:53;23.20;1.00
4308;DHT22;2167;53.448;9.984;2023-04-21T14:14:20;23.20;1.00
4308;DHT22;2167;53.448;9.984;2023-04-21T14:16:46;23.30;1.00
4308;DHT22;2167;53.448;9.984;2023-04-21T14:19:15;23.30;1.00
4308;DHT22;2167;53.448;9.984;2023-04-21T14:21:41;23.30;1.00
4308;DHT22;2167;53.448;9.984;2023-04-21T14:24:07;23.20;1.00
4308;DHT22;2167;53.448;9.984;2023-04-21T14:26:33;23.10;1.00
4308;DHT22;2167;53.448;9.984;2023-04-21T14:28:59;23.00;1.00
4308;DHT22;2167;53.448;9.984;2023-04-21T14:31:26;22.80;1.00
4308;DHT22;2167;53.448;9.984;2023-04-21T14:33:51;22.70;1.00
4308;DHT22;2167;53.448;9.984;2023-04-21T14:36:17;22.60;1.00
4308;DHT22;2167;53.448;9.984;2023-04-21T14:38:43;22.60;1.00
4308;DHT22;2167;53.448;9.984;2023-04-21T14:41:08;22.70;1.00
4308;DHT22;2167;53.448;9.984;2023-04-21T14:43:34;22.80;1.00
4308;DHT22;2167;53.448;9.984;2023-04-21T14:46:00;22.80;1.00
4308;DHT22;2167;53.448;9.984;2023-04-21T14:48:26;22.90;1.00
4308;DHT22;2167;53.448;9.984;2023-04-21T14:50:54;23.00;1.00
4308;DHT22;2167;53.448;9.984;2023-04-21T14:53:22;23.10;1.00
4308;DHT22;2167;53.448;9.984;2023-04-21T14:55:47;23.20;1.00
4308;DHT22;2167;53.448;9.984;2023-04-21T14:58:13;23.20;1.00
4308;DHT22;2167;53.448;9.984;2023-04-21T15:00:38;23.20;1.00
4308;DHT22;2167;53.448;9.984;2023-04-21T15:03:04;23.30;1.00
4308;DHT22;2167;53.448;9.984;2023-04-21T15:05:30;23.30;1.00
4308;DHT22;2167;53.448;9.984;2023-04-21T15:07:56;23.40;1.00
4308;DHT22;2167;53.448;9.984;2023-04-21T15:10:22;23.50;1.00
4308;DHT22;2167;53.448;9.984;2023-04-21T15:12:48;23.50;1.00
4308;DHT22;2167;53.448;9.984;2023-04-21T15:15:13;23.30;1.00
4308;DHT22;2167;53.448;9.984;2023-04-21T15:17:39;23.10;1.00
4308;DHT22;2167;53.448;9.984;2023-04-21T15:20:05;23.10;1.00
4308;DHT22;2167;53.448;9.984;2023-04-21T15:22:31;22.90;1.00
4308;DHT22;2167;53.448;9.984;2023-04-21T15:24:57;22.90;1.00
4308;DHT22;2167;53.448;9.984;2023-04-21T15:27:22;23.00;1.00
4308;DHT22;2167;53.448;9.984;2023-04-21T15:29:48;23.10;1.00
4308;DHT22;2167;53.448;9.984;2023-04-21T15:32:14;23.10;1.00
4308;DHT22;2167;53.448;9.984;2023-04-21T15:34:40;23.10;1.00
4308;DHT22;2167;53.448;9.984;2023-04-21T15:37:05;23.10;1.00
4308;DHT22;2167;53.448;9.984;2023-04-21T15:39:31;23.00;1.00
4308;DHT22;2167;53.448;9.984;2023-04-21T15:41:56;22.90;1.00
4308;DHT22;2167;53.448;9.984;2023-04-21T15:44:23;22.70;1.00
4308;DHT22;2167;53.448;9.984;2023-04-21T15:46:49;22.60;1.00
4308;DHT22;2167;53.448;9.984;2023-04-21T15:49:15;22.60;1.00
4308;DHT22;2167;53.448;9.984;2023-04-21T15:51:41;22.50;1.00
4308;DHT22;2167;53.448;9.984;2023-04-21T15:54:08;22.50;1.00
4308;DHT22;2167;53.448;9.984;2023-04-21T15:56:34;22.40;1.00
4308;DHT22;2167;53.448;9.984;2023-04-21T15:58:59;22.40;1.00
4308;DHT22;2167;53.448;9.984;2023-04-21T16:01:25;22.40;1.00
4308;DHT22;2167;53.448;9.984;2023-04-21T16:03:51;22.30;1.00
4308;DHT22;2167;53.448;9.984;2023-04-21T16:06:16;22.30;1.00
4308;DHT22;2167;53.448;9.984;2023-04-21T16:08:42;22.30;1.00
4308;DHT22;2167;53.448;9.984;2023-04-21T16:11:09;22.40;1.00
4308;DHT22;2167;53.448;9.984;2023-04-21T16:13:37;22.40;1.00
4308;DHT22;2167;53.448;9.984;2023-04-21T16:16:03;22.40;1.00
4308;DHT22;2167;53.448;9.984;2023-04-21T16:18:29;22.40;1.00
4308;DHT22;2167;53.448;9.984;2023-04-21T16:20:54;22.40;1.00
4308;DHT22;2167;53.448;9.984;2023-04-21T16:23:20;22.30;1.00
4308;DHT22;2167;53.448;9.984;2023-04-21T16:25:46;22.20;1.00
4308;DHT22;2167;53.448;9.984;2023-04-21T16:28:12;22.20;1.00
4308;DHT22;2167;53.448;9.984;2023-04-21T16:30:37;22.10;1.00